Time;durP1;ratioP1;P1;durP2;ratioP2;P2;SDS_P1;SDS_P2;PMS_P1;PMS_P2;Temp;Humidity;BMP_temperature;BMP_pressure;BME280_temperature;BME280_humidity;BME280_pressure;Samples;Min_cycle;Max_cycle;Signal;HPM_P1;HPM_P2
2022/06/25 00:00:29;;;;;;;17.85;15.93;;;18.50;99.90;;;;;;5110604;28;20172;-49
2022/06/25 00:02:55;;;;;;;18.08;15.63;;;18.50;99.90;;;;;;5111214;27;20048;-51
2022/06/25 00:05:29;;;;;;;19.35;15.18;;;18.50;99.90;;;;;;5093092;28;20035;-51
2022/06/25 00:07:59;;;;;;;18.88;15.05;;;18.50;99.90;;;;;;5111006;28;20031;-49
2022/06/25 00:10:25;;;;;;;17.15;15.30;;;18.40;99.90;;;;;;5111208;28;20036;-51
2022/06/25 00:12:52;;;;;;;17.90;14.98;;;18.40;99.90;;;;;;5111067;28;20043;-51
2022/06/25 00:15:18;;;;;;;17.98;15.35;;;18.50;99.90;;;;;;5111364;28;20035;-50
2022/06/25 00:17:44;;;;;;;20.55;15.25;;;18.40;99.90;;;;;;5110885;28;20043;-48
2022/06/25 00:20:11;;;;;;;17.65;14.52;;;18.40;99.90;;;;;;5109626;28;20076;-53
2022/06/25 00:22:36;;;;;;;17.27;15.25;;;18.30;99.90;;;;;;5110953;28;20236;-50
2022/06/25 00:25:03;;;;;;;17.92;14.45;;;18.30;99.90;;;;;;5110845;28;20035;-49
2022/06/25 00:27:28;;;;;;;17.88;15.30;;;18.40;99.90;;;;;;5092687;28;20498;-50
2022/06/25 00:29:54;;;;;;;16.60;14.73;;;18.30;99.90;;;;;;5110574;28;20043;-50
2022/06/25 00:32:20;;;;;;;16.38;14.32;;;18.30;99.90;;;;;;5110995;27;20478;-51
2022/06/25 00:34:47;;;;;;;15.65;13.88;;;18.30;99.90;;;;;;5110749;28;20402;-51
2022/06/25 00:37:13;;;;;;;15.85;14.15;;;18.30;99.90;;;;;;5110849;28;20095;-51
2022/06/25 00:39:38;;;;;;;15.18;13.55;;;18.20;99.90;;;;;;5110442;28;20522;-49
2022/06/25 00:42:09;;;;;;;16.85;14.48;;;18.20;99.90;;;;;;5110850;28;20040;-49
2022/06/25 00:44:35;;;;;;;15.90;14.25;;;18.20;99.90;;;;;;5110812;28;20077;-49
2022/06/25 00:47:02;;;;;;;14.45;12.75;;;18.20;99.90;;;;;;5110344;28;20047;-49
2022/06/25 00:49:28;;;;;;;13.98;12.30;;;18.10;99.90;;;;;;5110814;28;20118;-50
2022/06/25 00:51:56;;;;;;;12.93;11.30;;;18.20;99.90;;;;;;5092003;28;20459;-49
2022/06/25 00:54:29;;;;;;;14.85;12.57;;;18.20;99.90;;;;;;5110611;28;20092;-50
2022/06/25 00:56:58;;;;;;;12.93;11.43;;;18.10;99.90;;;;;;5110673;28;20119;-48
2022/06/25 00:59:28;;;;;;;14.30;11.63;;;18.10;99.90;;;;;;5110223;28;20127;-51
2022/06/25 01:01:53;;;;;;;13.38;11.40;;;18.10;99.90;;;;;;5091944;28;20223;-53
2022/06/25 01:04:20;;;;;;;13.57;11.15;;;18.10;99.90;;;;;;5110136;28;20040;-53
2022/06/25 01:06:45;;;;;;;13.50;11.77;;;18.10;99.90;;;;;;5110576;28;20436;-49
2022/06/25 01:09:11;;;;;;;12.65;10.98;;;18.10;99.90;;;;;;5111546;28;20042;-50
2022/06/25 01:11:37;;;;;;;14.40;11.57;;;18.00;99.90;;;;;;5114433;28;20038;-48
2022/06/25 01:14:08;;;;;;;13.32;10.65;;;18.10;99.90;;;;;;5114475;27;20043;-47
2022/06/25 01:16:33;;;;;;;13.60;10.63;;;18.00;99.90;;;;;;5114443;28;20139;-53
2022/06/25 01:19:06;;;;;;;11.05;9.82;;;18.00;99.90;;;;;;5114744;28;20115;-50
2022/06/25 01:21:32;;;;;;;13.27;10.20;;;18.00;99.90;;;;;;5114375;28;20481;-49
2022/06/25 01:23:57;;;;;;;12.15;9.80;;;18.00;99.90;;;;;;5114339;28;20035;-51
2022/06/25 01:26:23;;;;;;;12.15;9.43;;;18.00;99.90;;;;;;5114173;28;20135;-48
2022/06/25 01:28:49;;;;;;;11.73;8.95;;;17.90;99.90;;;;;;5095856;28;20071;-49
2022/06/25 01:31:14;;;;;;;10.48;8.95;;;17.90;99.90;;;;;;5113658;27;20043;-48
2022/06/25 01:33:40;;;;;;;10.07;8.80;;;17.90;99.90;;;;;;5095915;28;20082;-52
2022/06/25 01:36:06;;;;;;;12.23;9.02;;;17.90;99.90;;;;;;5114407;28;20102;-48
2022/06/25 01:38:31;;;;;;;10.93;8.75;;;17.90;99.90;;;;;;5114275;27;20096;-50
2022/06/25 01:40:57;;;;;;;11.18;8.10;;;17.90;99.90;;;;;;5114127;28;20066;-51
2022/06/25 01:43:22;;;;;;;10.82;8.70;;;17.80;99.90;;;;;;5114039;28;20386;-50
2022/06/25 01:45:48;;;;;;;12.85;9.05;;;17.90;99.90;;;;;;5114174;28;20035;-49
2022/06/25 01:48:14;;;;;;;9.57;8.52;;;17.90;99.90;;;;;;5095624;28;20036;-50
2022/06/25 01:50:39;;;;;;;9.30;8.27;;;17.90;99.90;;;;;;5113792;28;21944;-53
2022/06/25 01:53:05;;;;;;;10.57;9.40;;;17.80;99.90;;;;;;5095387;28;20481;-50
2022/06/25 01:55:32;;;;;;;9.70;8.70;;;17.80;99.90;;;;;;5113829;28;20039;-50
2022/06/25 01:57:58;;;;;;;10.95;8.73;;;17.90;99.90;;;;;;5113687;28;20043;-45
2022/06/25 02:00:27;;;;;;;10.10;8.75;;;17.80;99.90;;;;;;5112969;27;20083;-51
2022/06/25 02:02:53;;;;;;;11.40;9.25;;;17.80;99.90;;;;;;5113506;28;20494;-49
2022/06/25 02:08:07;;;;;;;10.68;9.00;;;17.80;99.90;;;;;;5113677;28;20115;-48
2022/06/25 02:10:32;;;;;;;11.93;9.15;;;17.70;99.90;;;;;;5113450;28;20047;-51
2022/06/25 02:12:58;;;;;;;10.77;9.02;;;17.70;99.90;;;;;;5113575;27;20374;-53
2022/06/25 02:15:24;;;;;;;11.35;9.45;;;17.60;99.90;;;;;;5094921;28;20083;-50
2022/06/25 02:17:49;;;;;;;11.27;9.30;;;17.70;99.90;;;;;;5113596;28;20039;-49
2022/06/25 02:20:16;;;;;;;10.73;9.27;;;17.60;99.90;;;;;;5094036;28;20028;-50
2022/06/25 02:22:42;;;;;;;12.35;9.55;;;17.50;99.90;;;;;;5113417;28;20488;-51
2022/06/25 02:25:08;;;;;;;14.40;10.07;;;17.60;99.90;;;;;;5094919;28;20039;-51
2022/06/25 02:27:35;;;;;;;13.07;9.57;;;17.50;99.90;;;;;;5113610;28;20111;-47
2022/06/25 02:30:01;;;;;;;14.25;9.02;;;17.50;99.90;;;;;;5094296;28;20048;-50
2022/06/25 02:32:30;;;;;;;12.77;9.68;;;17.50;99.90;;;;;;5113120;28;20051;-48
2022/06/25 02:34:55;;;;;;;10.68;9.30;;;17.40;99.90;;;;;;5113104;28;20042;-50
2022/06/25 02:37:21;;;;;;;10.82;9.50;;;17.50;99.90;;;;;;5094637;28;20035;-50
2022/06/25 02:39:47;;;;;;;10.27;9.18;;;17.40;99.90;;;;;;5112638;28;20036;-49
2022/06/25 02:42:12;;;;;;;11.68;8.95;;;17.40;99.90;;;;;;5112977;28;20047;-51
2022/06/25 02:44:38;;;;;;;10.68;9.57;;;17.30;99.90;;;;;;5113048;28;20032;-51
2022/06/25 02:47:04;;;;;;;14.02;9.98;;;17.40;99.90;;;;;;5112596;28;20470;-47
2022/06/25 02:49:30;;;;;;;11.70;9.68;;;17.30;99.90;;;;;;5112696;27;20493;-48
2022/06/25 02:51:56;;;;;;;11.93;9.77;;;17.30;99.90;;;;;;5111116;28;20168;-51
2022/06/25 02:54:22;;;;;;;12.93;9.38;;;17.30;99.90;;;;;;5112819;28;20070;-50
2022/06/25 02:59:31;;;;;;;13.70;9.25;;;17.20;99.90;;;;;;5112294;28;20131;-50
2022/06/25 03:01:57;;;;;;;10.90;9.32;;;17.20;99.90;;;;;;5093933;28;20130;-51
2022/06/25 03:04:27;;;;;;;12.43;9.63;;;17.20;99.90;;;;;;5112411;28;20035;-52
2022/06/25 03:06:52;;;;;;;12.20;9.65;;;17.20;99.90;;;;;;5112363;28;20376;-51
2022/06/25 03:09:18;;;;;;;11.80;9.57;;;17.20;99.90;;;;;;5112594;28;20176;-48
2022/06/25 03:11:45;;;;;;;12.55;9.13;;;17.10;99.90;;;;;;5093979;28;20174;-48
2022/06/25 03:14:11;;;;;;;13.48;10.23;;;17.20;99.90;;;;;;5093997;28;20043;-51
2022/06/25 03:16:37;;;;;;;11.10;10.00;;;17.20;99.90;;;;;;5112444;28;20055;-51
2022/06/25 03:19:03;;;;;;;12.15;9.82;;;17.10;99.90;;;;;;5093922;28;20040;-51
2022/06/25 03:21:29;;;;;;;12.00;9.35;;;17.10;99.90;;;;;;5093970;28;20051;-49
2022/06/25 03:23:55;;;;;;;12.32;9.98;;;17.00;99.90;;;;;;5111954;28;20390;-51
2022/06/25 03:26:21;;;;;;;12.30;9.70;;;17.10;99.90;;;;;;5111859;28;20044;-50
2022/06/25 03:28:47;;;;;;;10.20;9.10;;;17.10;99.90;;;;;;5131062;27;20042;-51
2022/06/25 03:31:13;;;;;;;14.48;8.90;;;16.90;99.90;;;;;;5131694;27;20470;-49
2022/06/25 03:33:38;;;;;;;11.00;9.68;;;17.00;99.90;;;;;;5131495;27;20084;-49
2022/06/25 03:36:04;;;;;;;11.60;10.40;;;17.00;99.90;;;;;;5113725;27;20047;-50
2022/06/25 03:38:30;;;;;;;10.38;9.27;;;16.90;99.90;;;;;;5132233;27;20023;-50
2022/06/25 03:43:40;;;;;;;;;;;16.90;99.90;;;;;;5093748;28;20057;-51
2022/06/25 03:46:06;;;;;;;11.18;9.98;;;16.80;99.90;;;;;;5110103;28;19922;-47
2022/06/25 03:48:32;;;;;;;13.30;10.52;;;16.80;99.90;;;;;;5111430;28;20082;-52
2022/06/25 03:50:58;;;;;;;13.07;10.50;;;16.80;99.90;;;;;;5111373;28;20039;-51
2022/06/25 03:53:24;;;;;;;12.10;9.95;;;16.90;99.90;;;;;;5111294;27;20039;-48
2022/06/25 03:55:50;;;;;;;12.40;10.02;;;16.80;99.90;;;;;;5111628;28;20089;-50
2022/06/25 03:58:16;;;;;;;12.10;10.80;;;16.80;99.90;;;;;;5111352;28;20036;-49
2022/06/25 04:00:42;;;;;;;12.05;10.05;;;16.80;99.90;;;;;;5078283;27;20051;-49
2022/06/25 04:03:07;;;;;;;12.05;10.30;;;16.80;99.90;;;;;;5131766;27;20067;-49
2022/06/25 04:05:33;;;;;;;10.60;9.50;;;16.80;99.90;;;;;;5131998;27;20084;-50
2022/06/25 04:07:59;;;;;;;10.77;8.90;;;16.90;99.90;;;;;;5131742;27;20031;-49
2022/06/25 04:10:25;;;;;;;13.00;9.65;;;16.90;99.90;;;;;;5131670;27;20031;-47
2022/06/25 04:12:50;;;;;;;11.35;9.63;;;16.90;99.90;;;;;;5131535;27;20043;-50
2022/06/25 04:15:16;;;;;;;13.68;8.85;;;16.90;99.90;;;;;;5130621;27;20050;-51
2022/06/25 04:17:42;;;;;;;9.95;8.48;;;16.80;99.90;;;;;;5111486;28;20067;-50
2022/06/25 04:20:09;;;;;;;10.82;9.30;;;16.90;99.90;;;;;;5110551;27;20058;-50
2022/06/25 04:22:34;;;;;;;10.65;8.77;;;16.90;99.90;;;;;;5111239;28;20043;-49
2022/06/25 04:25:00;;;;;;;10.57;8.95;;;16.90;99.90;;;;;;5110636;28;20574;-50
2022/06/25 04:30:10;;;;;;;11.43;8.77;;;17.00;99.90;;;;;;5110456;27;20047;-49
2022/06/25 04:32:36;;;;;;;13.70;8.80;;;17.10;99.90;;;;;;5110598;28;20054;-46
2022/06/25 04:35:02;;;;;;;10.07;8.23;;;17.00;99.90;;;;;;5110685;28;20059;-51
2022/06/25 04:37:27;;;;;;;11.35;9.20;;;17.10;99.90;;;;;;5111084;28;20036;-50
2022/06/25 04:39:53;;;;;;;12.63;8.55;;;17.10;99.90;;;;;;5110862;28;20435;-48
2022/06/25 04:42:18;;;;;;;12.38;8.20;;;17.10;99.90;;;;;;5110145;28;20489;-48
2022/06/25 04:44:44;;;;;;;10.60;8.38;;;17.20;99.90;;;;;;5092430;28;20485;-48
2022/06/25 04:47:10;;;;;;;10.27;8.27;;;17.10;99.90;;;;;;5110522;28;20054;-50
2022/06/25 04:49:36;;;;;;;13.43;7.80;;;17.20;99.90;;;;;;5110725;28;20448;-48
2022/06/25 04:52:02;;;;;;;8.93;7.55;;;17.20;99.90;;;;;;5110522;28;20118;-49
2022/06/25 04:54:27;;;;;;;10.57;7.15;;;17.30;99.90;;;;;;5110569;28;20118;-49
2022/06/25 04:56:53;;;;;;;10.50;7.70;;;17.40;99.90;;;;;;5092187;28;20517;-52
2022/06/25 04:59:19;;;;;;;9.77;7.22;;;17.50;99.90;;;;;;5110449;28;20445;-48
2022/06/25 05:01:45;;;;;;;10.25;7.10;;;17.50;99.90;;;;;;5110079;28;20046;-50
2022/06/25 05:04:11;;;;;;;10.23;7.40;;;17.50;99.90;;;;;;5110763;28;20031;-48
2022/06/25 05:06:36;;;;;;;9.60;7.97;;;17.60;99.90;;;;;;5110448;28;20080;-51
2022/06/25 05:09:02;;;;;;;11.63;7.75;;;17.50;99.90;;;;;;5092481;28;20075;-47
2022/06/25 05:11:28;;;;;;;9.88;7.35;;;17.60;99.90;;;;;;5110295;28;20414;-53
2022/06/25 05:13:53;;;;;;;9.43;7.35;;;17.70;99.90;;;;;;5110393;28;20050;-51
2022/06/25 05:16:19;;;;;;;8.85;7.43;;;17.70;99.90;;;;;;5110775;28;20031;-50
2022/06/25 05:18:47;;;;;;;11.57;8.20;;;17.80;99.90;;;;;;5110159;28;20038;-47
2022/06/25 05:21:14;;;;;;;8.38;6.88;;;17.80;99.90;;;;;;5110204;28;20036;-49
2022/06/25 05:23:39;;;;;;;9.63;7.40;;;17.80;99.90;;;;;;5110445;28;20039;-51
2022/06/25 05:26:05;;;;;;;11.98;7.25;;;17.90;99.90;;;;;;5110439;28;20062;-51
2022/06/25 05:28:31;;;;;;;8.68;6.70;;;17.90;99.90;;;;;;5110441;28;20149;-50
2022/06/25 05:30:57;;;;;;;9.45;6.68;;;18.00;99.90;;;;;;5091741;28;20052;-51
2022/06/25 05:33:23;;;;;;;9.30;6.97;;;18.10;99.90;;;;;;5090262;28;20044;-51
2022/06/25 05:35:48;;;;;;;9.45;7.20;;;18.00;99.90;;;;;;5110409;28;20036;-51
2022/06/25 05:38:14;;;;;;;9.20;6.65;;;18.20;99.90;;;;;;5109971;28;20034;-51
2022/06/25 05:40:40;;;;;;;8.73;6.45;;;18.20;99.90;;;;;;5110216;28;20039;-51
2022/06/25 05:43:06;;;;;;;13.48;6.88;;;18.30;99.90;;;;;;5110087;28;20036;-51
2022/06/25 05:45:32;;;;;;;10.88;6.93;;;18.20;99.90;;;;;;5109908;28;20058;-51
2022/06/25 05:47:57;;;;;;;9.40;6.82;;;18.30;99.90;;;;;;5110150;28;20042;-51
2022/06/25 05:50:24;;;;;;;12.07;6.90;;;18.30;99.90;;;;;;5110038;28;20120;-48
2022/06/25 05:52:49;;;;;;;8.15;6.35;;;18.40;99.90;;;;;;5110156;28;20039;-52
2022/06/25 05:55:15;;;;;;;8.60;6.25;;;18.30;99.90;;;;;;5111087;28;20046;-47
2022/06/25 05:57:41;;;;;;;8.55;5.82;;;18.40;99.90;;;;;;5114091;28;20024;-49
2022/06/25 06:00:10;;;;;;;8.10;6.13;;;18.60;99.90;;;;;;5113089;28;20089;-47
2022/06/25 06:02:36;;;;;;;7.28;5.30;;;18.70;99.90;;;;;;5113902;28;20505;-51
2022/06/25 06:05:02;;;;;;;7.30;5.07;;;18.70;99.90;;;;;;5113765;28;20044;-50
2022/06/25 06:07:28;;;;;;;7.85;5.38;;;18.80;99.90;;;;;;5112650;28;20504;-50
2022/06/25 06:09:54;;;;;;;6.60;4.30;;;18.90;99.90;;;;;;5113540;27;20067;-50
2022/06/25 06:12:19;;;;;;;7.25;4.57;;;19.00;99.90;;;;;;5113131;28;20075;-50
2022/06/25 06:14:45;;;;;;;8.15;4.80;;;19.20;99.90;;;;;;5113587;28;20088;-47
2022/06/25 06:17:11;;;;;;;9.85;4.60;;;19.20;99.90;;;;;;5113404;27;20367;-50
2022/06/25 06:19:37;;;;;;;6.85;4.45;;;19.20;99.90;;;;;;5113247;28;20028;-51
2022/06/25 06:22:03;;;;;;;6.53;4.07;;;19.30;99.90;;;;;;5095144;28;20058;-50
2022/06/25 06:24:28;;;;;;;8.15;4.55;;;19.30;99.90;;;;;;5094827;28;20402;-49
2022/06/25 06:26:54;;;;;;;10.00;4.25;;;19.30;99.90;;;;;;5112989;28;20038;-51
2022/06/25 06:29:20;;;;;;;9.05;3.63;;;19.50;99.90;;;;;;5113304;28;20076;-51
2022/06/25 06:31:45;;;;;;;5.55;3.58;;;19.50;99.90;;;;;;5112476;28;20044;-48
2022/06/25 06:34:11;;;;;;;7.15;3.75;;;19.60;99.90;;;;;;5111493;28;20027;-51
2022/06/25 06:36:37;;;;;;;8.30;3.80;;;19.70;99.90;;;;;;5112777;28;20032;-48
2022/06/25 06:39:03;;;;;;;7.97;2.92;;;19.70;99.90;;;;;;5113219;28;20063;-51
2022/06/25 06:41:28;;;;;;;10.77;3.13;;;19.80;99.90;;;;;;5113097;28;20032;-48
2022/06/25 06:43:54;;;;;;;8.25;3.40;;;19.80;99.90;;;;;;5112805;28;20130;-50
2022/06/25 06:46:19;;;;;;;4.88;2.38;;;19.70;99.90;;;;;;5113029;28;20044;-48
2022/06/25 06:48:45;;;;;;;5.15;2.55;;;19.80;99.90;;;;;;5112325;28;20483;-50
2022/06/25 06:51:11;;;;;;;5.85;2.97;;;19.70;99.90;;;;;;5093871;28;20040;-52
2022/06/25 06:53:37;;;;;;;8.60;3.20;;;19.80;99.90;;;;;;5112643;28;20394;-48
2022/06/25 06:56:03;;;;;;;6.07;3.10;;;19.90;99.90;;;;;;5112439;28;20128;-50
2022/06/25 06:58:29;;;;;;;6.10;2.60;;;19.90;99.90;;;;;;5094330;28;20036;-52
2022/06/25 07:00:56;;;;;;;8.02;2.92;;;19.80;99.90;;;;;;5111850;28;20044;-49
2022/06/25 07:03:21;;;;;;;6.88;2.90;;;20.00;99.90;;;;;;5131541;27;20039;-52
2022/06/25 07:05:47;;;;;;;6.57;2.97;;;20.10;99.90;;;;;;5120763;27;20051;-50
2022/06/25 07:08:12;;;;;;;10.15;3.10;;;20.10;99.90;;;;;;5112319;28;20035;-48
2022/06/25 07:10:38;;;;;;;5.28;2.30;;;20.20;99.90;;;;;;5112240;28;20052;-50
2022/06/25 07:13:04;;;;;;;4.28;2.40;;;20.10;99.90;;;;;;5092007;28;20054;-50
2022/06/25 07:15:30;;;;;;;6.03;2.45;;;20.20;99.90;;;;;;5111288;28;20034;-51
2022/06/25 07:17:55;;;;;;;6.45;2.65;;;20.30;99.90;;;;;;5109833;28;20049;-50
2022/06/25 07:20:21;;;;;;;6.93;2.67;;;20.40;99.90;;;;;;5111353;28;20083;-49
2022/06/25 07:22:47;;;;;;;5.13;2.50;;;20.50;99.90;;;;;;5094168;28;20043;-51
2022/06/25 07:25:13;;;;;;;6.95;2.72;;;20.50;99.90;;;;;;5098904;28;20081;-52
2022/06/25 07:27:39;;;;;;;5.75;2.53;;;20.50;99.90;;;;;;5080881;28;20123;-50
2022/06/25 07:30:05;;;;;;;5.20;2.50;;;20.60;99.90;;;;;;5099838;28;20118;-49
2022/06/25 07:32:31;;;;;;;6.20;2.25;;;20.50;99.90;;;;;;5099634;27;20048;-47
2022/06/25 07:34:57;;;;;;;6.90;2.13;;;20.70;99.90;;;;;;5091726;28;20512;-50
2022/06/25 07:37:22;;;;;;;5.88;2.25;;;20.70;99.90;;;;;;5099731;28;20040;-50
2022/06/25 07:39:48;;;;;;;4.65;2.25;;;20.70;99.90;;;;;;5099881;28;20031;-47
2022/06/25 07:42:14;;;;;;;8.40;2.40;;;20.80;99.90;;;;;;5099252;28;20155;-53
2022/06/25 07:44:39;;;;;;;6.10;2.53;;;20.80;99.90;;;;;;5099458;28;20482;-50
2022/06/25 07:47:05;;;;;;;9.15;2.75;;;20.90;99.90;;;;;;5098501;28;20127;-49
2022/06/25 07:51:56;;;;;;;6.18;2.10;;;21.00;99.90;;;;;;5099883;28;20031;-49
2022/06/25 07:52:17;;;;;;;6.70;2.20;;;21.00;99.90;;;;;;5099002;28;20135;-52
2022/06/25 07:54:43;;;;;;;8.30;2.70;;;21.10;99.90;;;;;;5099210;28;20032;-51
2022/06/25 07:57:08;;;;;;;4.88;2.05;;;21.10;99.90;;;;;;5078641;28;20044;-49
2022/06/25 07:59:34;;;;;;;7.38;2.13;;;21.10;99.90;;;;;;5099080;28;20044;-48
2022/06/25 08:02:00;;;;;;;6.40;2.40;;;21.20;99.90;;;;;;5099022;28;20093;-52
2022/06/25 08:04:25;;;;;;;5.28;2.03;;;21.20;99.90;;;;;;5099184;28;20043;-51
2022/06/25 08:06:55;;;;;;;5.43;2.10;;;21.20;99.90;;;;;;5098832;28;20044;-49
2022/06/25 08:09:20;;;;;;;7.18;2.40;;;21.20;99.90;;;;;;5099317;28;20548;-52
2022/06/25 08:11:46;;;;;;;4.40;1.80;;;21.20;99.90;;;;;;5099076;28;20032;-50
2022/06/25 08:14:12;;;;;;;4.82;1.85;;;21.30;99.90;;;;;;5081551;28;20023;-50
2022/06/25 08:16:38;;;;;;;4.38;2.10;;;21.30;99.90;;;;;;5099725;27;20036;-49
2022/06/25 08:19:04;;;;;;;3.97;2.00;;;21.40;99.90;;;;;;5099275;28;20036;-50
2022/06/25 08:21:29;;;;;;;5.68;1.75;;;21.40;99.90;;;;;;5079792;28;20069;-48
2022/06/25 08:23:55;;;;;;;9.32;2.00;;;21.40;99.90;;;;;;5099219;28;20097;-49
2022/06/25 08:26:21;;;;;;;3.95;1.75;;;21.50;99.90;;;;;;5098942;28;20558;-51
2022/06/25 08:28:47;;;;;;;4.45;1.70;;;21.50;99.90;;;;;;5098992;28;20478;-50
2022/06/25 08:31:12;;;;;;;4.70;2.20;;;21.40;99.90;;;;;;5076261;28;20433;-50
2022/06/25 08:33:38;;;;;;;6.50;1.63;;;21.60;99.90;;;;;;5098872;27;20039;-51
2022/06/25 08:36:04;;;;;;;7.10;1.80;;;21.60;99.90;;;;;;5099625;27;20028;-51
2022/06/25 08:38:30;;;;;;;3.95;1.58;;;21.70;99.90;;;;;;5098879;28;20111;-53
2022/06/25 08:41:02;;;;;;;5.63;1.60;;;21.70;99.90;;;;;;5098621;28;20055;-53
2022/06/25 08:43:29;;;;;;;5.18;1.92;;;21.80;99.90;;;;;;5098717;27;20360;-51
2022/06/25 08:45:55;;;;;;;3.88;1.60;;;21.90;99.90;;;;;;5079474;28;20391;-52
2022/06/25 08:48:32;;;;;;;6.72;1.77;;;22.00;99.90;;;;;;5098863;28;20040;-53
2022/06/25 08:50:59;;;;;;;3.17;1.30;;;21.80;99.90;;;;;;5098139;28;20073;-54
2022/06/25 08:53:31;;;;;;;3.20;1.30;;;22.10;99.90;;;;;;5099055;28;20047;-50
2022/06/25 08:55:57;;;;;;;5.30;1.42;;;22.20;99.90;;;;;;5098940;28;20028;-48
2022/06/25 08:58:23;;;;;;;3.05;1.10;;;22.20;99.90;;;;;;5098084;28;20126;-45
2022/06/25 09:00:49;;;;;;;5.57;1.50;;;22.30;99.90;;;;;;5097670;28;20138;-50
2022/06/25 09:03:14;;;;;;;3.42;1.10;;;22.30;99.90;;;;;;5098326;28;20043;-53
2022/06/25 09:05:42;;;;;;;4.55;1.17;;;22.60;99.90;;;;;;5098356;28;20055;-49
2022/06/25 09:08:11;;;;;;;5.20;1.20;;;22.90;99.90;;;;;;5098482;28;20487;-52
2022/06/25 09:10:38;;;;;;;2.75;1.10;;;23.10;99.90;;;;;;5098801;28;20035;-53
2022/06/25 09:13:07;;;;;;;3.13;1.25;;;23.00;99.90;;;;;;5098471;28;20368;-48
2022/06/25 09:15:35;;;;;;;4.93;1.40;;;22.80;99.90;;;;;;5098381;28;20047;-49
2022/06/25 09:18:12;;;;;;;4.32;1.20;;;22.80;99.90;;;;;;5098573;28;20108;-50
2022/06/25 09:21:01;;;;;;;2.85;1.00;;;23.10;99.90;;;;;;5098756;28;20035;-49
2022/06/25 09:23:32;;;;;;;2.38;0.88;;;23.60;99.90;;;;;;5098046;28;20134;-50
2022/06/25 09:26:11;;;;;;;2.65;0.95;;;23.50;99.90;;;;;;5097657;28;20494;-50
2022/06/25 09:28:42;;;;;;;5.03;1.20;;;23.30;99.90;;;;;;5091082;28;20035;-48
2022/06/25 09:31:08;;;;;;;2.10;0.88;;;23.20;99.90;;;;;;5096099;27;20075;-51
2022/06/25 09:33:39;;;;;;;4.18;1.50;;;23.00;99.90;;;;;;5099482;28;20036;-47
2022/06/25 09:36:09;;;;;;;5.50;1.17;;;23.40;99.90;;;;;;5084419;28;20131;-48
2022/06/25 09:38:47;;;;;;;5.10;1.25;;;23.80;99.90;;;;;;5101482;28;20035;-49
2022/06/25 09:41:12;;;;;;;3.45;1.00;;;23.70;99.90;;;;;;5101766;28;20032;-53
2022/06/25 09:43:40;;;;;;;3.47;1.00;;;23.60;99.90;;;;;;5100895;28;20054;-53
2022/06/25 09:46:06;;;;;;;2.75;1.05;;;23.40;99.90;;;;;;5101950;28;20035;-49
2022/06/25 09:48:34;;;;;;;3.72;1.02;;;23.30;99.90;;;;;;5082695;28;20043;-50
2022/06/25 09:51:13;;;;;;;5.38;0.95;;;23.20;99.90;;;;;;5101177;28;20039;-49
2022/06/25 09:53:52;;;;;;;3.97;1.20;;;23.10;99.90;;;;;;5084757;28;20043;-53
2022/06/25 09:56:24;;;;;;;8.55;1.60;;;23.10;99.90;;;;;;5101783;28;20399;-49
2022/06/25 09:58:51;;;;;;;4.35;1.35;;;23.00;99.90;;;;;;5100181;28;20405;-50
2022/06/25 10:01:19;;;;;;;3.67;0.90;;;23.00;99.90;;;;;;5098122;28;20059;-51
2022/06/25 10:03:46;;;;;;;2.45;1.10;;;23.10;99.90;;;;;;5099363;28;20036;-53
2022/06/25 10:06:23;;;;;;;3.78;1.13;;;23.00;99.90;;;;;;5097569;28;20092;-52
2022/06/25 10:08:59;;;;;;;6.82;1.50;;;22.80;99.90;;;;;;5097274;28;20032;-53
2022/06/25 10:11:27;;;;;;;2.40;1.17;;;22.80;99.90;;;;;;5098698;27;20036;-51
2022/06/25 10:13:54;;;;;;;3.03;1.17;;;22.70;99.90;;;;;;5096709;28;20071;-48
2022/06/25 10:16:22;;;;;;;3.53;1.10;;;22.60;99.90;;;;;;5097127;28;20038;-49
2022/06/25 10:18:49;;;;;;;5.10;1.23;;;22.70;99.90;;;;;;5094798;27;20502;-49
2022/06/25 10:21:15;;;;;;;3.25;1.50;;;23.20;99.90;;;;;;5096603;28;20027;-50
2022/06/25 10:23:43;;;;;;;4.57;2.00;;;23.40;99.90;;;;;;5098111;28;20115;-50
2022/06/25 10:26:10;;;;;;;6.43;2.20;;;23.70;99.90;;;;;;5097764;28;20084;-49
2022/06/25 10:28:36;;;;;;;2.75;1.40;;;23.80;99.90;;;;;;5097108;28;20039;-53
2022/06/25 10:31:12;;;;;;;5.97;1.48;;;23.70;99.90;;;;;;5096963;28;20023;-48
2022/06/25 10:34:02;;;;;;;4.13;1.42;;;23.60;99.90;;;;;;5095517;28;20048;-51
2022/06/25 10:36:46;;;;;;;9.75;2.03;;;23.30;99.90;;;;;;5096887;28;20039;-52
2022/06/25 10:39:27;;;;;;;8.15;1.60;;;23.10;99.90;;;;;;5078127;28;20036;-50
2022/06/25 10:45:04;;;;;;;4.20;1.45;;;22.60;99.90;;;;;;5097355;28;20118;-52
2022/06/25 10:47:52;;;;;;;2.60;1.50;;;22.40;99.90;;;;;;5096494;28;20030;-48
2022/06/25 10:50:21;;;;;;;19.35;2.05;;;22.20;99.90;;;;;;5093914;27;20047;-50
2022/06/25 10:53:05;;;;;;;9.38;2.05;;;22.00;99.90;;;;;;5094099;28;20044;-51
2022/06/25 10:55:34;;;;;;;5.45;2.30;;;21.80;99.90;;;;;;5098916;28;20065;-50
2022/06/25 10:58:14;;;;;;;8.70;2.50;;;21.70;99.90;;;;;;5109970;28;20383;-51
2022/06/25 11:00:51;;;;;;;7.15;2.72;;;21.40;99.90;;;;;;5103818;28;20043;-52
2022/06/25 11:03:36;;;;;;;5.30;2.22;;;21.30;99.90;;;;;;5101193;28;20044;-47
2022/06/25 11:06:24;;;;;;;4.32;2.47;;;21.40;99.90;;;;;;5099095;27;20043;-50
2022/06/25 11:08:51;;;;;;;6.03;2.65;;;21.20;99.90;;;;;;5100999;28;20039;-48
2022/06/25 11:11:28;;;;;;;7.22;3.08;;;21.20;99.90;;;;;;5102633;28;20031;-53
2022/06/25 11:13:54;;;;;;;8.00;2.30;;;21.30;99.90;;;;;;5101311;28;20039;-52
2022/06/25 11:16:21;;;;;;;5.80;2.30;;;21.30;99.90;;;;;;5099785;27;20031;-49
2022/06/25 11:18:53;;;;;;;6.05;2.80;;;21.40;99.90;;;;;;5101394;28;20032;-47
2022/06/25 11:21:32;;;;;;;7.78;3.08;;;21.40;99.90;;;;;;5085564;28;20040;-51
2022/06/25 11:24:08;;;;;;;8.77;2.70;;;21.70;99.90;;;;;;5097761;28;20483;-51
2022/06/25 11:29:27;;;;;;;6.07;2.80;;;21.70;99.90;;;;;;5099285;28;20184;-48
2022/06/25 11:31:54;;;;;;;5.25;2.40;;;21.60;99.90;;;;;;5099064;28;20067;-51
2022/06/25 11:34:21;;;;;;;5.10;2.70;;;21.50;99.90;;;;;;5101606;28;20059;-52
2022/06/25 11:36:56;;;;;;;5.53;2.60;;;21.50;99.90;;;;;;5106272;27;20612;-50
2022/06/25 11:39:21;;;;;;;6.82;2.92;;;21.50;99.90;;;;;;5103968;27;20046;-51
2022/06/25 11:41:51;;;;;;;5.43;3.20;;;21.50;99.90;;;;;;5109600;28;20474;-50
2022/06/25 11:44:18;;;;;;;6.47;3.00;;;21.50;99.90;;;;;;5111524;28;20035;-50
2022/06/25 11:46:45;;;;;;;5.05;3.03;;;21.50;99.90;;;;;;5111048;28;20461;-52
2022/06/25 11:49:12;;;;;;;5.25;3.00;;;21.60;99.90;;;;;;5107877;28;20119;-46
2022/06/25 11:51:44;;;;;;;6.85;2.75;;;21.60;99.90;;;;;;5093104;28;20521;-48
2022/06/25 11:54:10;;;;;;;6.22;3.05;;;21.70;99.90;;;;;;5108793;28;20106;-49
2022/06/25 11:56:36;;;;;;;5.00;2.47;;;21.60;99.90;;;;;;5104867;27;20082;-52
2022/06/25 11:59:02;;;;;;;7.43;2.65;;;21.60;99.90;;;;;;5109276;28;20499;-48
2022/06/25 12:01:30;;;;;;;5.05;2.50;;;21.70;99.90;;;;;;5105742;28;20043;-49
2022/06/25 12:03:57;;;;;;;4.45;2.35;;;21.60;99.90;;;;;;5110821;28;20138;-48
2022/06/25 12:06:23;;;;;;;2.92;1.80;;;21.70;99.90;;;;;;5111353;28;20047;-52
2022/06/25 12:08:50;;;;;;;6.63;1.70;;;21.80;99.90;;;;;;5111325;28;20047;-48
2022/06/25 12:11:16;;;;;;;4.93;1.65;;;21.90;99.90;;;;;;5092544;28;20035;-49
2022/06/25 12:13:42;;;;;;;2.80;1.50;;;22.00;99.90;;;;;;5111454;28;20937;-51
2022/06/25 12:16:08;;;;;;;3.30;1.45;;;22.10;99.90;;;;;;5092447;28;20106;-52
2022/06/25 12:18:39;;;;;;;2.28;1.40;;;22.20;99.90;;;;;;5111363;28;20119;-53
2022/06/25 12:21:06;;;;;;;3.30;1.65;;;22.40;99.90;;;;;;5092440;28;20069;-51
2022/06/25 12:23:54;;;;;;;3.05;1.75;;;22.50;99.90;;;;;;5075950;28;20047;-50
2022/06/25 12:26:24;;;;;;;3.97;1.50;;;22.80;99.90;;;;;;5111211;27;20046;-52
2022/06/25 12:28:50;;;;;;;3.35;1.60;;;23.20;99.90;;;;;;5110913;28;20433;-51
2022/06/25 12:31:17;;;;;;;3.65;1.90;;;23.50;99.90;;;;;;5110903;28;20039;-51
2022/06/25 12:33:51;;;;;;;4.82;1.50;;;24.00;99.90;;;;;;5110735;28;20482;-52
2022/06/25 12:36:18;;;;;;;3.35;1.50;;;24.00;99.90;;;;;;5110801;28;20124;-49
2022/06/25 12:38:44;;;;;;;3.95;1.67;;;24.20;99.90;;;;;;5110514;28;20038;-50
2022/06/25 12:41:10;;;;;;;5.07;1.50;;;24.20;99.90;;;;;;5092468;28;20035;-51
2022/06/25 12:43:46;;;;;;;3.58;1.42;;;24.60;99.90;;;;;;5110763;28;20372;-49
2022/06/25 12:46:13;;;;;;;4.18;1.20;;;24.60;99.90;;;;;;5111078;28;20556;-50
2022/06/25 12:48:39;;;;;;;1.88;0.80;;;25.10;99.90;;;;;;5110667;28;20038;-51
2022/06/25 12:51:15;;;;;;;3.70;0.70;;;24.90;99.90;;;;;;5092993;27;20047;-52
2022/06/25 12:53:43;;;;;;;3.30;0.52;;;24.90;99.90;;;;;;5131136;27;20028;-48
2022/06/25 12:56:10;;;;;;;2.08;0.60;;;24.90;99.90;;;;;;5129150;27;20076;-49
2022/06/25 12:58:37;;;;;;;1.63;0.50;;;24.90;99.90;;;;;;5110781;28;20063;-51